sensor_id;sensor_type;location;lat;lon;timestamp;P1;durP1;ratioP1;P2;durP2;ratioP2
7158;SDS011;63175;52.374;13.132;2024-02-14T00:01:11;4.10;;;3.80;;
7158;SDS011;63175;52.374;13.132;2024-02-14T00:03:38;4.00;;;3.40;;
7158;SDS011;63175;52.374;13.132;2024-02-14T00:06:05;4.20;;;3.57;;
7158;SDS011;63175;52.374;13.132;2024-02-14T00:08:32;4.80;;;3.77;;
7158;SDS011;63175;52.374;13.132;2024-02-14T00:10:59;4.50;;;3.60;;
7158;SDS011;63175;52.374;13.132;2024-02-14T00:13:27;4.70;;;3.23;;
7158;SDS011;63175;52.374;13.132;2024-02-14T00:15:55;3.60;;;3.30;;
7158;SDS011;63175;52.374;13.132;2024-02-14T00:18:22;3.43;;;3.13;;
7158;SDS011;63175;52.374;13.132;2024-02-14T00:20:49;3.23;;;3.00;;
7158;SDS011;63175;52.374;13.132;2024-02-14T00:23:16;3.73;;;3.43;;
7158;SDS011;63175;52.374;13.132;2024-02-14T00:25:43;3.47;;;3.17;;
7158;SDS011;63175;52.374;13.132;2024-02-14T00:28:10;4.00;;;3.53;;
7158;SDS011;63175;52.374;13.132;2024-02-14T00:30:37;3.77;;;3.40;;
7158;SDS011;63175;52.374;13.132;2024-02-14T00:33:05;5.40;;;4.77;;
7158;SDS011;63175;52.374;13.132;2024-02-14T00:35:32;3.63;;;3.40;;
7158;SDS011;63175;52.374;13.132;2024-02-14T00:37:59;5.33;;;4.03;;
7158;SDS011;63175;52.374;13.132;2024-02-14T00:40:26;6.47;;;4.00;;
7158;SDS011;63175;52.374;13.132;2024-02-14T00:42:53;6.17;;;4.40;;
7158;SDS011;63175;52.374;13.132;2024-02-14T00:45:20;7.27;;;3.30;;
7158;SDS011;63175;52.374;13.132;2024-02-14T00:47:47;4.83;;;3.77;;
7158;SDS011;63175;52.374;13.132;2024-02-14T00:50:15;4.27;;;3.87;;
7158;SDS011;63175;52.374;13.132;2024-02-14T00:52:42;3.83;;;3.53;;
7158;SDS011;63175;52.374;13.132;2024-02-14T00:55:09;3.70;;;3.40;;
7158;SDS011;63175;52.374;13.132;2024-02-14T00:57:36;3.97;;;3.67;;
7158;SDS011;63175;52.374;13.132;2024-02-14T01:00:03;5.63;;;3.57;;
7158;SDS011;63175;52.374;13.132;2024-02-14T01:02:31;4.93;;;4.00;;
7158;SDS011;63175;52.374;13.132;2024-02-14T01:04:58;4.77;;;3.83;;
7158;SDS011;63175;52.374;13.132;2024-02-14T01:07:26;5.33;;;4.43;;
7158;SDS011;63175;52.374;13.132;2024-02-14T01:09:53;3.63;;;3.40;;
7158;SDS011;63175;52.374;13.132;2024-02-14T01:12:20;3.90;;;3.60;;
7158;SDS011;63175;52.374;13.132;2024-02-14T01:14:47;4.10;;;3.80;;
7158;SDS011;63175;52.374;13.132;2024-02-14T01:17:15;3.47;;;3.20;;
7158;SDS011;63175;52.374;13.132;2024-02-14T01:19:41;4.13;;;3.73;;
7158;SDS011;63175;52.374;13.132;2024-02-14T01:22:08;5.77;;;3.40;;
7158;SDS011;63175;52.374;13.132;2024-02-14T01:24:37;6.13;;;3.03;;
7158;SDS011;63175;52.374;13.132;2024-02-14T01:27:04;3.50;;;3.20;;
7158;SDS011;63175;52.374;13.132;2024-02-14T01:29:33;3.53;;;3.23;;
7158;SDS011;63175;52.374;13.132;2024-02-14T01:32:00;3.80;;;3.50;;
7158;SDS011;63175;52.374;13.132;2024-02-14T01:34:29;3.70;;;3.40;;
7158;SDS011;63175;52.374;13.132;2024-02-14T01:36:56;3.17;;;2.87;;
7158;SDS011;63175;52.374;13.132;2024-02-14T01:39:23;3.23;;;2.93;;
7158;SDS011;63175;52.374;13.132;2024-02-14T01:41:51;3.40;;;3.10;;
7158;SDS011;63175;52.374;13.132;2024-02-14T01:44:18;2.87;;;2.67;;
7158;SDS011;63175;52.374;13.132;2024-02-14T01:46:45;4.90;;;3.70;;
7158;SDS011;63175;52.374;13.132;2024-02-14T01:49:12;5.40;;;3.60;;
7158;SDS011;63175;52.374;13.132;2024-02-14T01:51:40;4.87;;;4.20;;
7158;SDS011;63175;52.374;13.132;2024-02-14T01:54:09;4.10;;;3.30;;
7158;SDS011;63175;52.374;13.132;2024-02-14T01:56:37;3.83;;;3.57;;
7158;SDS011;63175;52.374;13.132;2024-02-14T01:59:06;4.37;;;3.83;;
7158;SDS011;63175;52.374;13.132;2024-02-14T02:01:35;5.80;;;4.60;;
7158;SDS011;63175;52.374;13.132;2024-02-14T02:04:02;3.63;;;3.33;;
7158;SDS011;63175;52.374;13.132;2024-02-14T02:06:29;6.10;;;3.40;;
7158;SDS011;63175;52.374;13.132;2024-02-14T02:08:57;4.07;;;3.20;;
7158;SDS011;63175;52.374;13.132;2024-02-14T02:11:24;10.43;;;3.77;;
7158;SDS011;63175;52.374;13.132;2024-02-14T02:13:51;3.57;;;3.37;;
7158;SDS011;63175;52.374;13.132;2024-02-14T02:16:19;4.00;;;3.50;;
7158;SDS011;63175;52.374;13.132;2024-02-14T02:18:46;6.27;;;3.43;;
7158;SDS011;63175;52.374;13.132;2024-02-14T02:21:14;5.40;;;4.40;;
7158;SDS011;63175;52.374;13.132;2024-02-14T02:23:45;4.77;;;4.17;;
7158;SDS011;63175;52.374;13.132;2024-02-14T02:26:12;3.60;;;3.30;;
7158;SDS011;63175;52.374;13.132;2024-02-14T02:28:39;4.40;;;4.00;;
7158;SDS011;63175;52.374;13.132;2024-02-14T02:31:07;4.60;;;4.17;;
7158;SDS011;63175;52.374;13.132;2024-02-14T02:33:35;4.93;;;3.87;;
7158;SDS011;63175;52.374;13.132;2024-02-14T02:36:02;4.07;;;3.70;;
7158;SDS011;63175;52.374;13.132;2024-02-14T02:38:29;4.10;;;3.60;;
7158;SDS011;63175;52.374;13.132;2024-02-14T02:40:57;4.40;;;4.00;;
7158;SDS011;63175;52.374;13.132;2024-02-14T02:43:25;4.40;;;4.03;;
7158;SDS011;63175;52.374;13.132;2024-02-14T02:45:52;5.63;;;4.20;;
7158;SDS011;63175;52.374;13.132;2024-02-14T02:48:19;4.90;;;3.90;;
7158;SDS011;63175;52.374;13.132;2024-02-14T02:50:48;8.60;;;4.60;;
7158;SDS011;63175;52.374;13.132;2024-02-14T02:53:15;5.37;;;3.80;;
7158;SDS011;63175;52.374;13.132;2024-02-14T02:55:42;5.60;;;3.23;;
7158;SDS011;63175;52.374;13.132;2024-02-14T02:58:10;4.60;;;3.00;;
7158;SDS011;63175;52.374;13.132;2024-02-14T03:00:38;3.63;;;3.33;;
7158;SDS011;63175;52.374;13.132;2024-02-14T03:03:07;4.13;;;3.70;;
7158;SDS011;63175;52.374;13.132;2024-02-14T03:05:34;6.63;;;4.50;;
7158;SDS011;63175;52.374;13.132;2024-02-14T03:08:01;4.33;;;3.50;;
7158;SDS011;63175;52.374;13.132;2024-02-14T03:10:28;4.23;;;3.93;;
7158;SDS011;63175;52.374;13.132;2024-02-14T03:12:54;4.13;;;3.40;;
7158;SDS011;63175;52.374;13.132;2024-02-14T03:15:23;4.30;;;4.00;;
7158;SDS011;63175;52.374;13.132;2024-02-14T03:17:51;3.50;;;3.20;;
7158;SDS011;63175;52.374;13.132;2024-02-14T03:20:18;4.10;;;3.70;;
7158;SDS011;63175;52.374;13.132;2024-02-14T03:22:45;4.13;;;3.70;;
7158;SDS011;63175;52.374;13.132;2024-02-14T03:25:12;4.17;;;3.17;;
7158;SDS011;63175;52.374;13.132;2024-02-14T03:27:41;4.33;;;3.93;;
7158;SDS011;63175;52.374;13.132;2024-02-14T03:30:10;3.87;;;3.47;;
7158;SDS011;63175;52.374;13.132;2024-02-14T03:32:42;8.60;;;3.97;;
7158;SDS011;63175;52.374;13.132;2024-02-14T03:35:09;6.00;;;3.93;;
7158;SDS011;63175;52.374;13.132;2024-02-14T03:37:38;5.03;;;4.43;;
7158;SDS011;63175;52.374;13.132;2024-02-14T03:40:06;3.87;;;3.57;;
7158;SDS011;63175;52.374;13.132;2024-02-14T03:42:34;4.57;;;4.20;;
7158;SDS011;63175;52.374;13.132;2024-02-14T03:45:05;3.90;;;3.57;;
7158;SDS011;63175;52.374;13.132;2024-02-14T03:47:32;3.67;;;3.37;;
7158;SDS011;63175;52.374;13.132;2024-02-14T03:50:01;5.83;;;3.50;;
7158;SDS011;63175;52.374;13.132;2024-02-14T03:52:29;4.13;;;3.63;;
7158;SDS011;63175;52.374;13.132;2024-02-14T03:54:58;4.70;;;4.20;;
7158;SDS011;63175;52.374;13.132;2024-02-14T03:57:25;4.70;;;4.30;;
7158;SDS011;63175;52.374;13.132;2024-02-14T03:59:53;5.10;;;4.60;;
7158;SDS011;63175;52.374;13.132;2024-02-14T04:02:20;4.83;;;3.90;;
7158;SDS011;63175;52.374;13.132;2024-02-14T04:04:48;5.63;;;3.70;;
7158;SDS011;63175;52.374;13.132;2024-02-14T04:07:17;3.90;;;3.50;;
7158;SDS011;63175;52.374;13.132;2024-02-14T04:09:44;4.53;;;4.13;;
7158;SDS011;63175;52.374;13.132;2024-02-14T04:12:10;4.70;;;4.20;;
7158;SDS011;63175;52.374;13.132;2024-02-14T04:14:38;3.97;;;3.33;;
7158;SDS011;63175;52.374;13.132;2024-02-14T04:17:05;6.80;;;4.13;;
7158;SDS011;63175;52.374;13.132;2024-02-14T04:19:33;6.90;;;4.17;;
7158;SDS011;63175;52.374;13.132;2024-02-14T04:22:00;4.87;;;3.70;;
7158;SDS011;63175;52.374;13.132;2024-02-14T04:24:28;4.30;;;3.90;;
7158;SDS011;63175;52.374;13.132;2024-02-14T04:26:56;4.50;;;3.83;;
7158;SDS011;63175;52.374;13.132;2024-02-14T04:29:22;3.90;;;3.50;;
7158;SDS011;63175;52.374;13.132;2024-02-14T04:31:49;4.10;;;3.73;;
7158;SDS011;63175;52.374;13.132;2024-02-14T04:34:17;4.60;;;3.67;;
7158;SDS011;63175;52.374;13.132;2024-02-14T04:36:44;7.10;;;4.23;;
7158;SDS011;63175;52.374;13.132;2024-02-14T04:39:11;5.50;;;4.33;;
7158;SDS011;63175;52.374;13.132;2024-02-14T04:41:39;3.83;;;3.53;;
7158;SDS011;63175;52.374;13.132;2024-02-14T04:44:06;4.20;;;3.60;;
7158;SDS011;63175;52.374;13.132;2024-02-14T04:46:33;3.87;;;3.57;;
7158;SDS011;63175;52.374;13.132;2024-02-14T04:49:01;4.23;;;3.87;;
7158;SDS011;63175;52.374;13.132;2024-02-14T04:51:28;4.70;;;3.93;;
7158;SDS011;63175;52.374;13.132;2024-02-14T04:53:55;3.70;;;3.40;;
7158;SDS011;63175;52.374;13.132;2024-02-14T04:56:23;3.50;;;3.20;;
7158;SDS011;63175;52.374;13.132;2024-02-14T04:58:51;4.07;;;3.63;;
7158;SDS011;63175;52.374;13.132;2024-02-14T05:01:18;4.77;;;4.17;;
7158;SDS011;63175;52.374;13.132;2024-02-14T05:03:45;6.00;;;4.20;;
7158;SDS011;63175;52.374;13.132;2024-02-14T05:06:12;8.90;;;4.60;;
7158;SDS011;63175;52.374;13.132;2024-02-14T05:08:39;4.87;;;3.80;;
7158;SDS011;63175;52.374;13.132;2024-02-14T05:11:06;4.53;;;4.13;;
7158;SDS011;63175;52.374;13.132;2024-02-14T05:13:33;5.00;;;4.50;;
7158;SDS011;63175;52.374;13.132;2024-02-14T05:16:03;5.07;;;4.53;;
7158;SDS011;63175;52.374;13.132;2024-02-14T05:18:31;4.97;;;4.47;;
7158;SDS011;63175;52.374;13.132;2024-02-14T05:20:58;5.10;;;4.60;;
7158;SDS011;63175;52.374;13.132;2024-02-14T05:23:25;11.33;;;4.83;;
7158;SDS011;63175;52.374;13.132;2024-02-14T05:25:51;4.83;;;4.43;;
7158;SDS011;63175;52.374;13.132;2024-02-14T05:28:18;6.10;;;4.00;;
7158;SDS011;63175;52.374;13.132;2024-02-14T05:30:46;5.37;;;4.87;;
7158;SDS011;63175;52.374;13.132;2024-02-14T05:33:14;6.37;;;4.20;;
7158;SDS011;63175;52.374;13.132;2024-02-14T05:35:41;6.07;;;4.43;;
7158;SDS011;63175;52.374;13.132;2024-02-14T05:38:07;4.47;;;4.07;;
7158;SDS011;63175;52.374;13.132;2024-02-14T05:40:34;6.77;;;4.50;;
7158;SDS011;63175;52.374;13.132;2024-02-14T05:43:04;8.20;;;5.10;;
7158;SDS011;63175;52.374;13.132;2024-02-14T05:45:32;7.10;;;4.57;;
7158;SDS011;63175;52.374;13.132;2024-02-14T05:47:59;8.40;;;5.30;;
7158;SDS011;63175;52.374;13.132;2024-02-14T05:50:27;6.50;;;4.57;;
7158;SDS011;63175;52.374;13.132;2024-02-14T05:52:54;5.47;;;4.97;;
7158;SDS011;63175;52.374;13.132;2024-02-14T05:55:22;7.70;;;5.70;;
7158;SDS011;63175;52.374;13.132;2024-02-14T05:57:49;5.40;;;4.90;;
7158;SDS011;63175;52.374;13.132;2024-02-14T06:00:17;8.13;;;5.67;;
7158;SDS011;63175;52.374;13.132;2024-02-14T06:02:45;7.90;;;5.23;;
7158;SDS011;63175;52.374;13.132;2024-02-14T06:05:12;7.93;;;6.13;;
7158;SDS011;63175;52.374;13.132;2024-02-14T06:07:41;7.77;;;5.20;;
7158;SDS011;63175;52.374;13.132;2024-02-14T06:10:10;7.20;;;5.03;;
7158;SDS011;63175;52.374;13.132;2024-02-14T06:12:37;4.90;;;4.40;;
7158;SDS011;63175;52.374;13.132;2024-02-14T06:15:06;6.87;;;4.00;;
7158;SDS011;63175;52.374;13.132;2024-02-14T06:17:33;5.73;;;4.47;;
7158;SDS011;63175;52.374;13.132;2024-02-14T06:20:00;4.87;;;4.40;;
7158;SDS011;63175;52.374;13.132;2024-02-14T06:22:30;5.67;;;4.70;;
7158;SDS011;63175;52.374;13.132;2024-02-14T06:24:59;4.60;;;4.10;;
7158;SDS011;63175;52.374;13.132;2024-02-14T06:27:26;4.90;;;4.23;;
7158;SDS011;63175;52.374;13.132;2024-02-14T06:29:53;8.73;;;4.30;;
7158;SDS011;63175;52.374;13.132;2024-02-14T06:32:20;4.47;;;4.00;;
7158;SDS011;63175;52.374;13.132;2024-02-14T06:34:47;4.07;;;3.77;;
7158;SDS011;63175;52.374;13.132;2024-02-14T06:37:14;3.73;;;3.40;;
7158;SDS011;63175;52.374;13.132;2024-02-14T06:39:40;8.83;;;4.80;;
7158;SDS011;63175;52.374;13.132;2024-02-14T06:42:09;8.50;;;4.47;;
7158;SDS011;63175;52.374;13.132;2024-02-14T06:44:35;4.53;;;4.07;;
7158;SDS011;63175;52.374;13.132;2024-02-14T06:47:02;9.87;;;4.13;;
7158;SDS011;63175;52.374;13.132;2024-02-14T06:49:30;7.43;;;4.80;;
7158;SDS011;63175;52.374;13.132;2024-02-14T06:51:56;5.60;;;3.90;;
7158;SDS011;63175;52.374;13.132;2024-02-14T06:54:23;5.43;;;4.13;;
7158;SDS011;63175;52.374;13.132;2024-02-14T06:56:50;4.63;;;3.53;;
7158;SDS011;63175;52.374;13.132;2024-02-14T06:59:18;3.77;;;3.37;;
7158;SDS011;63175;52.374;13.132;2024-02-14T07:01:45;3.90;;;3.60;;
7158;SDS011;63175;52.374;13.132;2024-02-14T07:04:12;4.47;;;3.60;;
7158;SDS011;63175;52.374;13.132;2024-02-14T07:06:39;3.97;;;3.53;;
7158;SDS011;63175;52.374;13.132;2024-02-14T07:09:06;3.90;;;3.60;;
7158;SDS011;63175;52.374;13.132;2024-02-14T07:11:32;3.93;;;3.57;;
7158;SDS011;63175;52.374;13.132;2024-02-14T07:13:59;5.50;;;3.70;;
7158;SDS011;63175;52.374;13.132;2024-02-14T07:16:28;4.10;;;3.67;;
7158;SDS011;63175;52.374;13.132;2024-02-14T07:18:54;6.23;;;3.20;;
7158;SDS011;63175;52.374;13.132;2024-02-14T07:21:21;4.03;;;3.60;;
7158;SDS011;63175;52.374;13.132;2024-02-14T07:23:48;5.10;;;3.80;;
7158;SDS011;63175;52.374;13.132;2024-02-14T07:26:15;2.80;;;2.60;;
7158;SDS011;63175;52.374;13.132;2024-02-14T07:28:42;5.17;;;4.00;;
7158;SDS011;63175;52.374;13.132;2024-02-14T07:31:09;3.17;;;2.87;;
7158;SDS011;63175;52.374;13.132;2024-02-14T07:33:37;4.10;;;3.43;;
7158;SDS011;63175;52.374;13.132;2024-02-14T07:36:04;4.50;;;4.03;;
7158;SDS011;63175;52.374;13.132;2024-02-14T07:38:31;8.73;;;3.47;;
7158;SDS011;63175;52.374;13.132;2024-02-14T07:40:58;3.90;;;2.47;;
7158;SDS011;63175;52.374;13.132;2024-02-14T07:43:25;3.23;;;2.67;;
7158;SDS011;63175;52.374;13.132;2024-02-14T07:45:52;3.20;;;2.73;;
7158;SDS011;63175;52.374;13.132;2024-02-14T07:48:19;3.03;;;2.60;;
7158;SDS011;63175;52.374;13.132;2024-02-14T07:50:48;4.43;;;2.53;;
7158;SDS011;63175;52.374;13.132;2024-02-14T07:53:15;3.33;;;2.67;;
7158;SDS011;63175;52.374;13.132;2024-02-14T07:55:42;4.23;;;3.47;;
7158;SDS011;63175;52.374;13.132;2024-02-14T07:58:09;3.20;;;2.70;;
7158;SDS011;63175;52.374;13.132;2024-02-14T08:00:36;2.70;;;2.50;;
7158;SDS011;63175;52.374;13.132;2024-02-14T08:03:03;5.10;;;2.73;;
7158;SDS011;63175;52.374;13.132;2024-02-14T08:05:31;5.40;;;2.90;;
7158;SDS011;63175;52.374;13.132;2024-02-14T08:08:00;2.63;;;2.43;;
7158;SDS011;63175;52.374;13.132;2024-02-14T08:10:26;7.50;;;3.13;;
7158;SDS011;63175;52.374;13.132;2024-02-14T08:12:53;3.80;;;3.00;;
7158;SDS011;63175;52.374;13.132;2024-02-14T08:15:20;4.47;;;2.83;;
7158;SDS011;63175;52.374;13.132;2024-02-14T08:17:47;2.40;;;2.20;;
7158;SDS011;63175;52.374;13.132;2024-02-14T08:20:14;2.97;;;2.70;;
7158;SDS011;63175;52.374;13.132;2024-02-14T08:22:41;2.77;;;2.57;;
7158;SDS011;63175;52.374;13.132;2024-02-14T08:25:09;2.93;;;2.73;;
7158;SDS011;63175;52.374;13.132;2024-02-14T08:27:36;2.80;;;2.60;;
7158;SDS011;63175;52.374;13.132;2024-02-14T08:30:04;4.03;;;2.50;;
7158;SDS011;63175;52.374;13.132;2024-02-14T08:32:31;2.30;;;2.20;;
7158;SDS011;63175;52.374;13.132;2024-02-14T08:34:59;3.33;;;2.43;;
7158;SDS011;63175;52.374;13.132;2024-02-14T08:37:26;3.33;;;2.50;;
7158;SDS011;63175;52.374;13.132;2024-02-14T08:39:53;3.70;;;2.50;;
7158;SDS011;63175;52.374;13.132;2024-02-14T08:42:21;3.13;;;2.60;;
7158;SDS011;63175;52.374;13.132;2024-02-14T08:44:48;4.07;;;2.50;;
7158;SDS011;63175;52.374;13.132;2024-02-14T08:47:15;2.50;;;2.30;;
7158;SDS011;63175;52.374;13.132;2024-02-14T08:49:42;6.17;;;2.60;;
7158;SDS011;63175;52.374;13.132;2024-02-14T08:52:09;2.53;;;2.30;;
7158;SDS011;63175;52.374;13.132;2024-02-14T08:54:36;3.07;;;2.87;;
7158;SDS011;63175;52.374;13.132;2024-02-14T08:57:03;3.10;;;2.30;;
7158;SDS011;63175;52.374;13.132;2024-02-14T08:59:32;3.83;;;2.20;;
7158;SDS011;63175;52.374;13.132;2024-02-14T09:01:59;2.43;;;2.13;;
7158;SDS011;63175;52.374;13.132;2024-02-14T09:04:26;2.60;;;2.40;;
7158;SDS011;63175;52.374;13.132;2024-02-14T09:06:53;2.37;;;2.27;;
7158;SDS011;63175;52.374;13.132;2024-02-14T09:09:20;3.67;;;2.50;;
7158;SDS011;63175;52.374;13.132;2024-02-14T09:11:47;4.70;;;2.40;;
7158;SDS011;63175;52.374;13.132;2024-02-14T09:14:14;2.90;;;2.20;;
7158;SDS011;63175;52.374;13.132;2024-02-14T09:16:42;3.67;;;2.20;;
7158;SDS011;63175;52.374;13.132;2024-02-14T09:19:11;2.40;;;1.93;;
7158;SDS011;63175;52.374;13.132;2024-02-14T09:21:38;3.90;;;2.50;;
7158;SDS011;63175;52.374;13.132;2024-02-14T09:24:05;5.93;;;2.43;;
7158;SDS011;63175;52.374;13.132;2024-02-14T09:26:32;2.60;;;2.27;;
7158;SDS011;63175;52.374;13.132;2024-02-14T09:28:59;3.90;;;2.53;;
7158;SDS011;63175;52.374;13.132;2024-02-14T09:31:25;2.53;;;2.33;;
7158;SDS011;63175;52.374;13.132;2024-02-14T09:33:54;3.60;;;2.30;;
7158;SDS011;63175;52.374;13.132;2024-02-14T09:36:23;2.97;;;2.67;;
7158;SDS011;63175;52.374;13.132;2024-02-14T09:38:50;4.17;;;2.40;;
7158;SDS011;63175;52.374;13.132;2024-02-14T09:41:21;2.13;;;1.60;;
7158;SDS011;63175;52.374;13.132;2024-02-14T09:43:51;7.60;;;2.93;;
7158;SDS011;63175;52.374;13.132;2024-02-14T09:46:18;3.03;;;2.40;;
7158;SDS011;63175;52.374;13.132;2024-02-14T09:48:45;2.57;;;2.17;;
7158;SDS011;63175;52.374;13.132;2024-02-14T09:51:14;2.17;;;2.03;;
7158;SDS011;63175;52.374;13.132;2024-02-14T09:53:41;2.13;;;1.93;;
7158;SDS011;63175;52.374;13.132;2024-02-14T09:56:09;2.60;;;2.40;;
7158;SDS011;63175;52.374;13.132;2024-02-14T09:58:38;3.83;;;2.47;;
7158;SDS011;63175;52.374;13.132;2024-02-14T10:01:07;3.10;;;2.30;;
7158;SDS011;63175;52.374;13.132;2024-02-14T10:03:34;2.53;;;2.00;;
7158;SDS011;63175;52.374;13.132;2024-02-14T10:06:01;4.13;;;2.10;;
7158;SDS011;63175;52.374;13.132;2024-02-14T10:08:30;3.10;;;2.20;;
7158;SDS011;63175;52.374;13.132;2024-02-14T10:10:58;4.40;;;2.03;;
7158;SDS011;63175;52.374;13.132;2024-02-14T10:13:26;4.03;;;2.13;;
7158;SDS011;63175;52.374;13.132;2024-02-14T10:15:54;2.70;;;2.50;;
7158;SDS011;63175;52.374;13.132;2024-02-14T10:18:22;3.10;;;2.47;;
7158;SDS011;63175;52.374;13.132;2024-02-14T10:20:53;4.60;;;2.00;;
7158;SDS011;63175;52.374;13.132;2024-02-14T10:23:20;3.97;;;2.50;;
7158;SDS011;63175;52.374;13.132;2024-02-14T10:25:49;3.07;;;1.97;;
7158;SDS011;63175;52.374;13.132;2024-02-14T10:28:17;2.50;;;2.30;;
7158;SDS011;63175;52.374;13.132;2024-02-14T10:30:45;2.73;;;1.90;;
7158;SDS011;63175;52.374;13.132;2024-02-14T10:33:12;3.07;;;1.93;;
7158;SDS011;63175;52.374;13.132;2024-02-14T10:35:40;2.40;;;2.20;;
7158;SDS011;63175;52.374;13.132;2024-02-14T10:38:08;3.50;;;1.93;;
7158;SDS011;63175;52.374;13.132;2024-02-14T10:40:35;6.37;;;2.00;;
7158;SDS011;63175;52.374;13.132;2024-02-14T10:43:04;2.80;;;1.93;;
7158;SDS011;63175;52.374;13.132;2024-02-14T10:45:31;8.03;;;2.17;;
7158;SDS011;63175;52.374;13.132;2024-02-14T10:47:59;4.47;;;2.57;;
7158;SDS011;63175;52.374;13.132;2024-02-14T10:50:27;4.53;;;2.20;;
7158;SDS011;63175;52.374;13.132;2024-02-14T10:52:56;4.50;;;2.30;;
7158;SDS011;63175;52.374;13.132;2024-02-14T10:55:27;2.33;;;2.10;;
7158;SDS011;63175;52.374;13.132;2024-02-14T10:57:57;5.70;;;2.37;;
7158;SDS011;63175;52.374;13.132;2024-02-14T11:00:26;2.27;;;2.07;;
7158;SDS011;63175;52.374;13.132;2024-02-14T11:02:53;2.90;;;2.27;;
7158;SDS011;63175;52.374;13.132;2024-02-14T11:05:21;3.67;;;1.87;;
7158;SDS011;63175;52.374;13.132;2024-02-14T11:07:49;3.03;;;2.30;;
7158;SDS011;63175;52.374;13.132;2024-02-14T11:10:19;2.70;;;1.77;;
7158;SDS011;63175;52.374;13.132;2024-02-14T11:12:47;2.67;;;2.03;;
7158;SDS011;63175;52.374;13.132;2024-02-14T11:15:16;4.17;;;2.10;;
7158;SDS011;63175;52.374;13.132;2024-02-14T11:17:45;4.50;;;1.80;;
7158;SDS011;63175;52.374;13.132;2024-02-14T11:20:17;3.30;;;2.07;;
7158;SDS011;63175;52.374;13.132;2024-02-14T11:22:54;2.53;;;2.30;;
7158;SDS011;63175;52.374;13.132;2024-02-14T11:25:22;2.23;;;1.90;;
7158;SDS011;63175;52.374;13.132;2024-02-14T11:27:50;2.37;;;1.93;;
7158;SDS011;63175;52.374;13.132;2024-02-14T11:30:26;3.03;;;2.30;;
7158;SDS011;63175;52.374;13.132;2024-02-14T11:32:56;2.33;;;1.83;;
7158;SDS011;63175;52.374;13.132;2024-02-14T11:35:39;2.40;;;2.30;;
7158;SDS011;63175;52.374;13.132;2024-02-14T11:38:07;2.00;;;1.90;;
7158;SDS011;63175;52.374;13.132;2024-02-14T11:40:34;10.13;;;2.90;;
7158;SDS011;63175;52.374;13.132;2024-02-14T11:43:03;2.20;;;1.93;;
7158;SDS011;63175;52.374;13.132;2024-02-14T11:45:31;3.70;;;2.03;;
7158;SDS011;63175;52.374;13.132;2024-02-14T11:47:59;4.10;;;2.80;;
7158;SDS011;63175;52.374;13.132;2024-02-14T11:50:26;3.37;;;2.20;;
7158;SDS011;63175;52.374;13.132;2024-02-14T11:52:54;3.03;;;2.73;;
7158;SDS011;63175;52.374;13.132;2024-02-14T11:55:26;3.90;;;1.97;;
7158;SDS011;63175;52.374;13.132;2024-02-14T11:57:54;3.73;;;2.30;;
7158;SDS011;63175;52.374;13.132;2024-02-14T12:00:21;3.67;;;2.33;;
7158;SDS011;63175;52.374;13.132;2024-02-14T12:02:49;4.87;;;2.23;;
7158;SDS011;63175;52.374;13.132;2024-02-14T12:05:18;2.47;;;2.00;;
7158;SDS011;63175;52.374;13.132;2024-02-14T12:07:45;4.27;;;2.40;;
7158;SDS011;63175;52.374;13.132;2024-02-14T12:10:13;4.30;;;2.93;;
7158;SDS011;63175;52.374;13.132;2024-02-14T12:12:40;2.50;;;2.30;;
7158;SDS011;63175;52.374;13.132;2024-02-14T12:15:11;2.70;;;1.90;;
7158;SDS011;63175;52.374;13.132;2024-02-14T12:17:40;2.33;;;2.13;;
7158;SDS011;63175;52.374;13.132;2024-02-14T12:20:10;2.20;;;2.00;;
7158;SDS011;63175;52.374;13.132;2024-02-14T12:22:40;2.00;;;1.90;;
7158;SDS011;63175;52.374;13.132;2024-02-14T12:25:07;4.97;;;2.57;;
7158;SDS011;63175;52.374;13.132;2024-02-14T12:27:36;3.77;;;1.80;;
7158;SDS011;63175;52.374;13.132;2024-02-14T12:30:03;2.50;;;2.30;;
7158;SDS011;63175;52.374;13.132;2024-02-14T12:32:30;5.03;;;2.20;;
7158;SDS011;63175;52.374;13.132;2024-02-14T12:34:58;3.50;;;2.00;;
7158;SDS011;63175;52.374;13.132;2024-02-14T12:37:25;2.90;;;2.13;;
7158;SDS011;63175;52.374;13.132;2024-02-14T12:39:53;3.73;;;2.63;;
7158;SDS011;63175;52.374;13.132;2024-02-14T12:42:20;2.40;;;2.10;;
7158;SDS011;63175;52.374;13.132;2024-02-14T12:44:50;2.43;;;2.00;;
7158;SDS011;63175;52.374;13.132;2024-02-14T12:47:18;4.03;;;2.13;;
7158;SDS011;63175;52.374;13.132;2024-02-14T12:49:47;2.07;;;1.90;;
7158;SDS011;63175;52.374;13.132;2024-02-14T12:52:14;2.07;;;1.97;;
7158;SDS011;63175;52.374;13.132;2024-02-14T12:54:41;2.70;;;1.73;;
7158;SDS011;63175;52.374;13.132;2024-02-14T12:57:10;2.67;;;2.20;;
7158;SDS011;63175;52.374;13.132;2024-02-14T12:59:37;2.53;;;2.20;;
7158;SDS011;63175;52.374;13.132;2024-02-14T13:02:04;5.17;;;2.37;;
7158;SDS011;63175;52.374;13.132;2024-02-14T13:04:32;2.50;;;1.90;;
7158;SDS011;63175;52.374;13.132;2024-02-14T13:07:00;2.33;;;2.13;;
7158;SDS011;63175;52.374;13.132;2024-02-14T13:09:27;4.80;;;2.30;;
7158;SDS011;63175;52.374;13.132;2024-02-14T13:11:54;2.20;;;2.00;;
7158;SDS011;63175;52.374;13.132;2024-02-14T13:14:22;2.83;;;2.40;;
7158;SDS011;63175;52.374;13.132;2024-02-14T13:16:49;2.13;;;1.90;;
7158;SDS011;63175;52.374;13.132;2024-02-14T13:19:16;3.23;;;2.00;;
7158;SDS011;63175;52.374;13.132;2024-02-14T13:21:43;2.13;;;1.93;;
7158;SDS011;63175;52.374;13.132;2024-02-14T13:24:11;1.70;;;1.60;;
7158;SDS011;63175;52.374;13.132;2024-02-14T13:26:39;2.13;;;2.00;;
7158;SDS011;63175;52.374;13.132;2024-02-14T13:29:06;1.93;;;1.63;;
7158;SDS011;63175;52.374;13.132;2024-02-14T13:31:34;2.47;;;2.07;;
7158;SDS011;63175;52.374;13.132;2024-02-14T13:34:01;2.20;;;2.00;;
7158;SDS011;63175;52.374;13.132;2024-02-14T13:36:30;1.80;;;1.70;;
7158;SDS011;63175;52.374;13.132;2024-02-14T13:38:57;2.27;;;1.80;;
7158;SDS011;63175;52.374;13.132;2024-02-14T13:41:25;1.77;;;1.60;;
7158;SDS011;63175;52.374;13.132;2024-02-14T13:43:52;4.73;;;2.03;;
7158;SDS011;63175;52.374;13.132;2024-02-14T13:46:19;1.90;;;1.80;;
7158;SDS011;63175;52.374;13.132;2024-02-14T13:48:47;7.73;;;3.03;;
7158;SDS011;63175;52.374;13.132;2024-02-14T13:51:14;4.60;;;2.13;;
7158;SDS011;63175;52.374;13.132;2024-02-14T13:53:41;2.50;;;2.30;;
7158;SDS011;63175;52.374;13.132;2024-02-14T13:56:08;3.53;;;2.40;;
7158;SDS011;63175;52.374;13.132;2024-02-14T13:58:36;3.53;;;2.20;;
7158;SDS011;63175;52.374;13.132;2024-02-14T14:01:03;2.43;;;2.23;;
7158;SDS011;63175;52.374;13.132;2024-02-14T14:03:32;2.13;;;1.93;;
7158;SDS011;63175;52.374;13.132;2024-02-14T14:06:03;2.67;;;2.40;;
7158;SDS011;63175;52.374;13.132;2024-02-14T14:08:33;3.70;;;2.50;;
7158;SDS011;63175;52.374;13.132;2024-02-14T14:11:02;3.47;;;2.00;;
7158;SDS011;63175;52.374;13.132;2024-02-14T14:13:29;3.30;;;1.93;;
7158;SDS011;63175;52.374;13.132;2024-02-14T14:15:56;2.73;;;2.50;;
7158;SDS011;63175;52.374;13.132;2024-02-14T14:18:23;5.97;;;2.63;;
7158;SDS011;63175;52.374;13.132;2024-02-14T14:20:49;5.53;;;2.30;;
7158;SDS011;63175;52.374;13.132;2024-02-14T14:23:18;2.33;;;2.13;;
7158;SDS011;63175;52.374;13.132;2024-02-14T14:25:45;1.77;;;1.67;;
7158;SDS011;63175;52.374;13.132;2024-02-14T14:28:12;4.40;;;2.67;;
7158;SDS011;63175;52.374;13.132;2024-02-14T14:30:39;2.50;;;2.30;;
7158;SDS011;63175;52.374;13.132;2024-02-14T14:33:06;2.80;;;2.20;;
7158;SDS011;63175;52.374;13.132;2024-02-14T14:35:33;3.53;;;2.70;;
7158;SDS011;63175;52.374;13.132;2024-02-14T14:38:00;2.10;;;1.97;;
7158;SDS011;63175;52.374;13.132;2024-02-14T14:40:30;4.00;;;2.87;;
7158;SDS011;63175;52.374;13.132;2024-02-14T14:42:57;3.10;;;2.30;;
7158;SDS011;63175;52.374;13.132;2024-02-14T14:45:24;2.40;;;2.20;;
7158;SDS011;63175;52.374;13.132;2024-02-14T14:47:52;2.40;;;2.20;;
7158;SDS011;63175;52.374;13.132;2024-02-14T14:50:21;4.80;;;2.43;;